You are here

Stations

Station Name Date Time Temperature Relative Humidity Precipitation Wind Speed Wind Direction Create Custom Report Daily Report Hourly Report
Aberdeen VTcr 2019-17-08 14:45 96.1 35.87 0.00 1.97 NNE
Bee Lake 2019-17-08 14:45 98.1 43.72 0.00 0.94 ENE
Brooksville 2019-17-08 14:45 93.5 39.07 0.00 4.54 NNW
Brooksville2 VTso 2019-17-08 14:45 93.6 39.26 0.00
Brown Loam Exp Stn VT 2019-17-08 14:45 96.7 43.94 0.00 3.99 ENE
Brown Loam Exp. Stn. 2019-17-08 14:45 94.8 45.18 0.00 3.81 SE
Catladge Farm 2019-17-08 14:44
Clarksdale VTso 2019-17-08 14:45 95.9 49.20 0.00
Cleveland 2019-17-08 14:45 95.1 54.28 0.00 2.44 WSW
Coastal Res & Ext Cnt 2019-17-08 14:45 93.0 64.52 0.00 4.65 SSE
COOP Stoneville 2019-16-08 8:00 79.0 89 0.00
Home Cypress Farm 2019-17-08 14:45 97.9 43.71 0.00 1.60 SSW
Longwood VTso 2019-17-08 14:45 96.2 44.83 0.00
Lyon 2019-17-08 14:45 94.8 49.60 0.00 2.55 SE
Macon VTcr 2019-17-08 14:45 96.0 32.28 0.00 4.09 N
Money VT 2019-17-08 14:45 94.5 48.09 0.00 4.62 ESE
Mound Bayou 2019-17-08 14:45 94.9 45.35 0.00 2.24 SSE
MSU North Farm Starkv 2019-17-08 14:45 93.2 42.70 0.00 2.93 NW
Natchez 2019-17-08 14:45 97.2 48.63 0.00 2.73 ENE
Olive Branch VTcr 2019-17-08 14:45 93.7 44.82 0.00 2.91 NW
Olive Branch2 VTso 2019-17-08 14:45 92.6 57.73 0.00
Onward VT 2019-17-08 14:45 95.9 40.52 0.00
Pontotoc AWS COOP 2019-17-08 14:44
Prairie 2019-17-08 14:45 93.2 100.00 0.00 2.75 NNE
Sidon 2019-17-08 14:45 96.8 52.56 0.00 1.48 SE
Stoneville AWS 2019-17-08 14:45 94.9 48.75 0.00 2.16 W
Stoneville F10 2019-17-08 14:45 95.1 0.80 0.00 2.83 N
Stoneville W 2019-17-08 14:45 97.6 45.70 0.00 2.00 ESE
Stoneville_SW 2019-17-08 14:45 94.4 55.80 0.00 3.28 ESE
Thighman 2019-17-08 14:45 94.9 45.05 0.00 3.68 SSE
Tippo VT 2019-17-08 14:45 95.3 46.96 0.00
Tribbett 2019-17-08 14:45 94.9 48.62 0.00 1.17 ENE
Verona 2019-17-08 14:45 94.3 43.31 0.00 2.56 WSW
Verona VTso 2019-17-08 14:45 93.5 44.57 0.00
Back to Top